LPPRLPMA

Guest
Details From LPPR - Porto
To LPMA - Madeira
Flight Number -
Tags decoded
Created
Modified
Stats Distance 643 nm / 1,191 km
Max Altitude 0 ft / 0 m
Waypoints 5
Social Downloads 2
Likes 0
Share VATSIM

Download

Looking for another format? Having issues loading an existing format? Contact us
Advertisement - Login to hide

Notes

Requested: LPPR TOVBA LAMDI MARUM LIDRO LPMA Unmatched points: TOVBA

Route

LPPR LAMDI MARUM LIDRO LPMA

ID Type Via Altitude Latitude Longitude Leg Dist Tot Dist Heading (true) Name
O LPPR APT - 0 ft / 0 m 41.24793˚ -8.68122˚ - 0 nm - Porto
LAMDI FIX - 0 ft / 0 m 39.20583˚ -10.96500˚ 161 nm 161 nm 221° / 220° -
MARUM FIX - 0 ft / 0 m 36.62222˚ -13.43778˚ 194 nm 355 nm 218° / 216° -
LIDRO FIX - 0 ft / 0 m 33.66750˚ -15.94972˚ 216 nm 571 nm 216° / 214° -
O LPMA APT - 0 ft / 0 m 32.69770˚ -16.77445˚ 71 nm 643 nm 216° / 215° Madeira

Altitude Profile

Advertisement - Login to hide

Weather


0- 5 10 15 20 25 30 35+ Temperature / ° C

Clouds and Precipitation
Forecast for 2017-12-17 12:00 UTC. Updated an hour ago

Ground ~20,000 ft ~40,000 ft Winds

LPPR

Details ICAO LPPR (OPO)
Name Porto
Region Portugal
Timezone Europe/Lisbon (UTC+0.0)
Stats Elevation 228 ft / 69 m (AMSL)
Location 41.247932° -8.681221°
Runways 1
Magnetic Variation 2.339° W

METAR

LPPR 170830Z 06004KT CAVOK 02/01 Q1032

Decode

TAF

TAF LPPR 170500Z 1706/1806 10005KT CAVOK PROB30 1713/1718 35010KT BECMG 1718/1720 VRB03KT BECMG 1721/1723 08005KT

Decode

Departure Runways

ID Width Length Bearing (true) Bearing (mag) Surface Threshold Offset Overrun Length
17 148 ft / 45 m 11,451 ft / 3,490 m 168.88° 171.22° Asphalt 984 ft / 300 m 220 ft / 67 m
35 148 ft / 45 m 11,451 ft / 3,490 m 348.89° 351.23° Asphalt 492 ft / 150 m 370 ft / 113 m

LPMA

Details ICAO LPMA (FNC)
Name Madeira
Region Portugal
Timezone Atlantic/Madeira (UTC+0.0)
Stats Elevation 192 ft / 59 m (AMSL)
Location 32.697704° -16.774449°
Runways 1
Magnetic Variation 4.981° W

METAR

LPMA 170830Z 02014KT 340V050 9999 SCT015 SCT030 17/08 Q1028

Decode

TAF

TAF LPMA 170500Z 1706/1806 02015KT 9999 SCT015 TEMPO 1706/1806 BKN015 PROB40 TEMPO 1706/1721 02018G30KT

Decode

Destination Runways

ID Width Length Bearing (true) Bearing (mag) Surface Threshold Offset Overrun Length
05 141 ft / 43 m 8,683 ft / 2,647 m 42.98° 47.96° Asphalt 472 ft / 144 m 0 ft / 0 m
23 141 ft / 43 m 8,683 ft / 2,647 m 222.99° 227.97° Asphalt 466 ft / 142 m 0 ft / 0 m

Popular Alternatives